Time;durP1;ratioP1;P1;durP2;ratioP2;P2;SDS_P1;SDS_P2;PMS_P1;PMS_P2;Temp;Humidity;BMP_temperature;BMP_pressure;BME280_temperature;BME280_humidity;BME280_pressure;Samples;Min_cycle;Max_cycle;Signal;HPM_P1;HPM_P2
2023/03/21 00:00:35;;;;;;;8.80;5.07;;;;;;;;;;4869083;29;20215;-75
2023/03/21 00:03:02;;;;;;;10.00;4.70;;;;;;;;;;4883922;29;20191;-75
2023/03/21 00:05:28;;;;;;;10.60;4.78;;;;;;;;;;4900573;29;20435;-75
2023/03/21 00:07:54;;;;;;;11.57;4.80;;;;;;;;;;4884051;29;20205;-75
2023/03/21 00:10:20;;;;;;;8.63;5.35;;;;;;;;;;4900673;29;20443;-76
2023/03/21 00:12:49;;;;;;;11.35;5.00;;;;;;;;;;4900595;29;20182;-76
2023/03/21 00:15:17;;;;;;;9.73;4.47;;;;;;;;;;4900926;29;20214;-76
2023/03/21 00:17:44;;;;;;;6.20;4.22;;;;;;;;;;4900876;29;20281;-76
2023/03/21 00:20:14;;;;;;;13.90;4.78;;;;;;;;;;4904642;29;20186;-76
2023/03/21 00:22:41;;;;;;;10.13;5.25;;;;;;;;;;4904923;29;20175;-75
2023/03/21 00:25:07;;;;;;;8.38;5.53;;;;;;;;;;4887370;29;20646;-76
2023/03/21 00:27:33;;;;;;;10.55;5.55;;;;;;;;;;4887484;29;20191;-76
2023/03/21 00:30:00;;;;;;;9.98;6.43;;;;;;;;;;4904930;29;20191;-75
2023/03/21 00:32:26;;;;;;;11.02;5.70;;;;;;;;;;4904783;29;20175;-75
2023/03/21 00:34:52;;;;;;;9.20;5.30;;;;;;;;;;4904149;29;20218;-75
2023/03/21 00:37:18;;;;;;;10.98;5.97;;;;;;;;;;4904320;29;20305;-75
2023/03/21 00:39:47;;;;;;;7.00;5.63;;;;;;;;;;4904311;29;20225;-75
2023/03/21 00:42:14;;;;;;;10.00;6.03;;;;;;;;;;4904334;29;20431;-75
2023/03/21 00:44:40;;;;;;;10.77;6.07;;;;;;;;;;4904194;29;20186;-75
2023/03/21 00:47:06;;;;;;;9.88;5.45;;;;;;;;;;4904367;29;20210;-76
2023/03/21 00:49:32;;;;;;;12.45;6.43;;;;;;;;;;4905033;29;20194;-76
2023/03/21 00:52:02;;;;;;;8.88;5.07;;;;;;;;;;4904502;29;20257;-76
2023/03/21 00:54:28;;;;;;;6.15;5.10;;;;;;;;;;4887678;29;20274;-76
2023/03/21 00:56:54;;;;;;;11.52;6.07;;;;;;;;;;4887406;29;20187;-75
2023/03/21 00:59:20;;;;;;;11.23;5.28;;;;;;;;;;4886994;29;20187;-75
2023/03/21 01:01:46;;;;;;;15.00;6.33;;;;;;;;;;4904049;29;20175;-75
2023/03/21 01:04:15;;;;;;;12.82;6.13;;;;;;;;;;4903657;29;20458;-76
2023/03/21 01:06:42;;;;;;;13.43;5.80;;;;;;;;;;4903775;29;20179;-75
2023/03/21 01:09:11;;;;;;;11.27;5.88;;;;;;;;;;4903922;29;20285;-76
2023/03/21 01:11:38;;;;;;;13.35;6.10;;;;;;;;;;4904613;29;20654;-76
2023/03/21 01:14:04;;;;;;;10.35;6.15;;;;;;;;;;4886480;29;20230;-77
2023/03/21 01:16:30;;;;;;;9.15;5.93;;;;;;;;;;4903904;29;20183;-75
2023/03/21 01:18:56;;;;;;;11.82;5.70;;;;;;;;;;4903828;29;20278;-75
2023/03/21 01:21:23;;;;;;;11.43;5.88;;;;;;;;;;4903086;29;20245;-75
2023/03/21 01:23:49;;;;;;;11.02;5.45;;;;;;;;;;4903575;29;20179;-76
2023/03/21 01:26:15;;;;;;;8.45;5.80;;;;;;;;;;4886727;29;20194;-76
2023/03/21 01:28:41;;;;;;;10.03;5.33;;;;;;;;;;4903999;29;20175;-76
2023/03/21 01:31:08;;;;;;;11.93;5.40;;;;;;;;;;4903816;29;20411;-76
2023/03/21 01:33:34;;;;;;;8.15;5.75;;;;;;;;;;4903502;29;20179;-76
2023/03/21 01:36:01;;;;;;;7.55;5.35;;;;;;;;;;4885104;29;20250;-76
2023/03/21 01:38:27;;;;;;;10.20;5.90;;;;;;;;;;4901981;29;20175;-76
2023/03/21 01:40:53;;;;;;;8.85;5.38;;;;;;;;;;4903246;29;20187;-76
2023/03/21 01:43:21;;;;;;;11.73;5.50;;;;;;;;;;4886640;29;20183;-76
2023/03/21 01:46:06;;;;;;;11.27;4.80;;;;;;;;;;4903206;29;20186;-76
2023/03/21 01:48:33;;;;;;;10.52;5.95;;;;;;;;;;4903203;29;20202;-76
2023/03/21 01:51:00;;;;;;;9.18;6.07;;;;;;;;;;4886473;29;20187;-76
2023/03/21 01:53:28;;;;;;;13.48;7.13;;;;;;;;;;4903468;29;20195;-76
2023/03/21 01:56:00;;;;;;;11.25;5.55;;;;;;;;;;4902827;29;20217;-76
2023/03/21 01:58:26;;;;;;;10.38;5.70;;;;;;;;;;4902286;29;20182;-76
2023/03/21 02:00:55;;;;;;;13.73;6.45;;;;;;;;;;4903269;29;20171;-76
2023/03/21 02:03:21;;;;;;;13.40;7.43;;;;;;;;;;4902464;29;20208;-76
2023/03/21 02:06:01;;;;;;;8.95;5.78;;;;;;;;;;4902477;29;20194;-76
2023/03/21 02:08:28;;;;;;;8.77;6.03;;;;;;;;;;4902304;29;20557;-76
2023/03/21 02:10:54;;;;;;;9.18;5.28;;;;;;;;;;4901382;29;20175;-76
2023/03/21 02:13:20;;;;;;;9.52;5.97;;;;;;;;;;4902737;29;20588;-76
2023/03/21 02:15:53;;;;;;;16.48;6.40;;;;;;;;;;4886614;29;20206;-76
2023/03/21 02:18:42;;;;;;;9.27;5.72;;;;;;;;;;4902372;29;20183;-76
2023/03/21 02:21:11;;;;;;;11.20;6.28;;;;;;;;;;4897645;29;20533;-78
2023/03/21 02:23:37;;;;;;;11.65;5.88;;;;;;;;;;4902554;29;20182;-76
2023/03/21 02:26:09;;;;;;;15.83;5.80;;;;;;;;;;4902398;29;20175;-76
2023/03/21 02:28:45;;;;;;;16.20;6.30;;;;;;;;;;4902797;29;20403;-76
2023/03/21 02:31:19;;;;;;;15.73;6.35;;;;;;;;;;4902219;29;20175;-76
2023/03/21 02:34:05;;;;;;;18.33;6.50;;;;;;;;;;4903519;29;20171;-76
2023/03/21 02:36:37;;;;;;;12.73;7.18;;;;;;;;;;4901773;29;20495;-76
2023/03/21 02:39:11;;;;;;;10.68;6.22;;;;;;;;;;4902089;29;20182;-76
2023/03/21 02:41:42;;;;;;;11.57;6.20;;;;;;;;;;4902568;29;20176;-76
2023/03/21 02:44:14;;;;;;;12.20;6.47;;;;;;;;;;4886067;29;20190;-76
2023/03/21 02:46:49;;;;;;;14.82;7.32;;;;;;;;;;4902518;29;20239;-76
2023/03/21 02:49:15;;;;;;;12.55;7.47;;;;;;;;;;4902471;29;20178;-76
2023/03/21 02:51:42;;;;;;;10.88;6.47;;;;;;;;;;4902634;29;20217;-76
2023/03/21 02:54:13;;;;;;;14.52;6.78;;;;;;;;;;4901500;29;20207;-76
2023/03/21 02:56:41;;;;;;;8.85;6.15;;;;;;;;;;4901258;29;20520;-76
2023/03/21 02:59:08;;;;;;;10.50;6.35;;;;;;;;;;4884818;29;20187;-76
2023/03/21 03:01:34;;;;;;;12.70;7.00;;;;;;;;;;4901416;29;20179;-76
2023/03/21 03:04:00;;;;;;;13.20;6.88;;;;;;;;;;4884596;29;20183;-76
2023/03/21 03:06:28;;;;;;;8.53;5.97;;;;;;;;;;4901277;29;20516;-76
2023/03/21 03:09:01;;;;;;;15.73;6.60;;;;;;;;;;4901643;29;20416;-76
2023/03/21 03:11:35;;;;;;;10.65;5.95;;;;;;;;;;4901762;29;20253;-76
2023/03/21 03:14:17;;;;;;;13.20;6.05;;;;;;;;;;4901326;29;20617;-76
2023/03/21 03:16:55;;;;;;;10.02;6.50;;;;;;;;;;4885541;29;20591;-76
2023/03/21 03:19:26;;;;;;;14.02;6.47;;;;;;;;;;4900935;29;20170;-76
2023/03/21 03:22:00;;;;;;;11.95;6.90;;;;;;;;;;4901613;29;20243;-76
2023/03/21 03:24:47;;;;;;;9.55;6.53;;;;;;;;;;4901155;29;20186;-76
2023/03/21 03:27:16;;;;;;;18.23;7.05;;;;;;;;;;4901375;29;20269;-75
2023/03/21 03:29:44;;;;;;;13.38;6.97;;;;;;;;;;4901399;29;20625;-75
2023/03/21 03:32:13;;;;;;;10.60;5.65;;;;;;;;;;4901454;29;20187;-74
2023/03/21 03:34:41;;;;;;;13.05;5.65;;;;;;;;;;4900836;29;20624;-75
2023/03/21 03:37:10;;;;;;;10.65;6.60;;;;;;;;;;4901167;29;20308;-75
2023/03/21 03:39:39;;;;;;;15.23;7.05;;;;;;;;;;4901219;29;20178;-75
2023/03/21 03:42:08;;;;;;;11.48;6.75;;;;;;;;;;4901589;29;20182;-74
2023/03/21 03:44:35;;;;;;;11.27;6.78;;;;;;;;;;4901013;29;20186;-75
2023/03/21 03:47:07;;;;;;;12.77;7.18;;;;;;;;;;4901108;29;20174;-75
2023/03/21 03:49:37;;;;;;;13.30;6.70;;;;;;;;;;4901196;29;20194;-75
2023/03/21 03:52:29;;;;;;;9.50;5.78;;;;;;;;;;4901123;29;20589;-75
2023/03/21 03:54:56;;;;;;;10.07;6.25;;;;;;;;;;4898626;29;20237;-75
2023/03/21 03:57:22;;;;;;;20.25;6.35;;;;;;;;;;4900822;29;20194;-74
2023/03/21 03:59:48;;;;;;;10.80;6.53;;;;;;;;;;4901402;29;20183;-75
2023/03/21 04:02:15;;;;;;;14.15;6.38;;;;;;;;;;4883819;29;20194;-77
2023/03/21 04:04:41;;;;;;;16.33;9.00;;;;;;;;;;4901140;29;20250;-75
2023/03/21 04:07:07;;;;;;;10.70;6.13;;;;;;;;;;4900817;29;20628;-74
2023/03/21 04:09:33;;;;;;;10.98;6.50;;;;;;;;;;4900322;29;21296;-75
2023/03/21 04:12:00;;;;;;;12.20;6.30;;;;;;;;;;4901128;29;20538;-75
2023/03/21 04:14:26;;;;;;;14.93;6.55;;;;;;;;;;4883712;29;20215;-75
2023/03/21 04:16:53;;;;;;;11.13;6.30;;;;;;;;;;4900762;29;20197;-75
2023/03/21 04:19:19;;;;;;;13.45;6.60;;;;;;;;;;4900932;29;20496;-75
2023/03/21 04:21:46;;;;;;;14.93;6.30;;;;;;;;;;4901000;29;20182;-74
2023/03/21 04:24:12;;;;;;;11.27;5.80;;;;;;;;;;4901129;29;20208;-74
2023/03/21 04:26:39;;;;;;;11.45;5.60;;;;;;;;;;4900593;29;20171;-75
2023/03/21 04:29:05;;;;;;;12.73;6.53;;;;;;;;;;4900679;29;20179;-74
2023/03/21 04:31:32;;;;;;;19.25;6.60;;;;;;;;;;4900646;29;20183;-74
2023/03/21 04:33:59;;;;;;;10.40;5.55;;;;;;;;;;4884612;29;20199;-74
2023/03/21 04:36:29;;;;;;;7.75;5.30;;;;;;;;;;4900082;29;20242;-75
2023/03/21 04:39:00;;;;;;;12.70;5.03;;;;;;;;;;4901152;29;20178;-75
2023/03/21 04:41:29;;;;;;;10.90;5.65;;;;;;;;;;4900393;29;20179;-75
2023/03/21 04:43:55;;;;;;;15.77;6.00;;;;;;;;;;4900810;29;20227;-75
2023/03/21 04:46:21;;;;;;;9.43;5.47;;;;;;;;;;4900533;29;20304;-76
2023/03/21 04:48:47;;;;;;;10.88;5.43;;;;;;;;;;4901150;29;20194;-75
2023/03/21 04:51:14;;;;;;;13.65;5.80;;;;;;;;;;4900760;29;20640;-75
2023/03/21 04:53:43;;;;;;;10.23;5.70;;;;;;;;;;4900754;29;20191;-75
2023/03/21 04:56:09;;;;;;;13.43;5.18;;;;;;;;;;4899958;29;20287;-75
2023/03/21 04:58:35;;;;;;;9.90;5.95;;;;;;;;;;4900212;29;20179;-76
2023/03/21 05:01:04;;;;;;;13.63;5.23;;;;;;;;;;4900838;29;20243;-74
2023/03/21 05:03:33;;;;;;;13.48;5.68;;;;;;;;;;4900300;29;20422;-75
2023/03/21 05:05:59;;;;;;;17.02;6.00;;;;;;;;;;4903883;29;20274;-75
2023/03/21 05:08:25;;;;;;;10.82;5.47;;;;;;;;;;4903474;29;20179;-76
2023/03/21 05:10:51;;;;;;;11.95;6.05;;;;;;;;;;4903581;29;20539;-76
2023/03/21 05:13:17;;;;;;;10.40;5.00;;;;;;;;;;4903546;29;20178;-75
2023/03/21 05:15:43;;;;;;;7.65;5.15;;;;;;;;;;4903820;29;20474;-75
2023/03/21 05:18:09;;;;;;;11.70;5.40;;;;;;;;;;4904023;29;20230;-76
2023/03/21 05:20:36;;;;;;;16.35;5.97;;;;;;;;;;4902740;29;20532;-76
2023/03/21 05:23:02;;;;;;;13.63;5.60;;;;;;;;;;4903711;29;20625;-75
2023/03/21 05:25:34;;;;;;;12.73;5.37;;;;;;;;;;4886322;29;20190;-75
2023/03/21 05:28:03;;;;;;;13.93;6.32;;;;;;;;;;4903666;29;20399;-75
2023/03/21 05:30:29;;;;;;;11.95;5.15;;;;;;;;;;4903653;29;20167;-76
2023/03/21 05:32:55;;;;;;;12.23;6.20;;;;;;;;;;4903395;29;20182;-75
2023/03/21 05:35:21;;;;;;;9.35;5.15;;;;;;;;;;4902792;29;20655;-76
2023/03/21 05:37:47;;;;;;;13.40;6.13;;;;;;;;;;4887069;29;20187;-75
2023/03/21 05:40:13;;;;;;;10.00;5.43;;;;;;;;;;4903065;29;20427;-75
2023/03/21 05:42:39;;;;;;;10.90;5.07;;;;;;;;;;4903256;29;20489;-75
2023/03/21 05:45:05;;;;;;;11.10;5.78;;;;;;;;;;4903101;29;20187;-75
2023/03/21 05:47:31;;;;;;;10.65;5.32;;;;;;;;;;4885531;29;20182;-75
2023/03/21 05:49:57;;;;;;;16.17;6.45;;;;;;;;;;4903202;29;20190;-75
2023/03/21 05:52:24;;;;;;;16.90;7.10;;;;;;;;;;4902734;29;20179;-75
2023/03/21 05:54:50;;;;;;;13.48;6.18;;;;;;;;;;4903101;29;21028;-76
2023/03/21 05:57:18;;;;;;;10.10;6.03;;;;;;;;;;4902444;29;20183;-76
2023/03/21 05:59:44;;;;;;;10.98;6.05;;;;;;;;;;4902825;29;20466;-76
2023/03/21 06:02:10;;;;;;;12.98;5.82;;;;;;;;;;4902668;29;20186;-76
2023/03/21 06:04:36;;;;;;;11.18;6.55;;;;;;;;;;4902853;29;20192;-76
2023/03/21 06:07:03;;;;;;;11.90;5.67;;;;;;;;;;4902224;29;20531;-76
2023/03/21 06:09:29;;;;;;;9.10;5.80;;;;;;;;;;4902155;29;20411;-76
2023/03/21 06:11:56;;;;;;;12.75;5.82;;;;;;;;;;4902497;29;20553;-76
2023/03/21 06:14:23;;;;;;;16.08;6.50;;;;;;;;;;4902101;29;20285;-79
2023/03/21 06:16:49;;;;;;;12.00;6.78;;;;;;;;;;4905916;29;20639;-76
2023/03/21 06:19:15;;;;;;;18.38;6.40;;;;;;;;;;4902284;29;20202;-75
2023/03/21 06:21:42;;;;;;;15.05;6.40;;;;;;;;;;4902060;29;20238;-76
2023/03/21 06:24:09;;;;;;;12.25;6.65;;;;;;;;;;4885639;29;20187;-76
2023/03/21 06:26:35;;;;;;;12.82;7.82;;;;;;;;;;4902183;29;20214;-76
2023/03/21 06:29:01;;;;;;;12.95;6.70;;;;;;;;;;4901702;29;20190;-76
2023/03/21 06:31:27;;;;;;;13.20;6.35;;;;;;;;;;4902119;29;20238;-76
2023/03/21 06:33:53;;;;;;;15.87;7.23;;;;;;;;;;4901846;29;20179;-76
2023/03/21 06:36:19;;;;;;;10.80;7.07;;;;;;;;;;4901881;29;20486;-76
2023/03/21 06:38:45;;;;;;;14.60;7.28;;;;;;;;;;4902248;29;20185;-76
2023/03/21 06:41:12;;;;;;;9.67;6.67;;;;;;;;;;4885096;29;20187;-76
2023/03/21 06:43:38;;;;;;;16.33;6.78;;;;;;;;;;4906189;29;20410;-76
2023/03/21 06:46:04;;;;;;;15.88;7.45;;;;;;;;;;4904041;29;20190;-76
2023/03/21 06:48:31;;;;;;;12.77;7.10;;;;;;;;;;4912682;29;20183;-76
2023/03/21 06:50:57;;;;;;;12.95;6.43;;;;;;;;;;4884924;29;20218;-77
2023/03/21 06:53:26;;;;;;;17.30;7.70;;;;;;;;;;4901766;29;20521;-76
2023/03/21 06:55:52;;;;;;;15.52;7.30;;;;;;;;;;4901880;29;20301;-77
2023/03/21 06:58:19;;;;;;;14.32;7.97;;;;;;;;;;4904539;29;20210;-77
2023/03/21 07:00:45;;;;;;;14.27;7.85;;;;;;;;;;4901212;29;20179;-77
2023/03/21 07:03:12;;;;;;;17.52;7.88;;;;;;;;;;4885505;29;20639;-76
2023/03/21 07:05:38;;;;;;;13.75;7.80;;;;;;;;;;4901220;29;20191;-76
2023/03/21 07:08:05;;;;;;;12.18;8.25;;;;;;;;;;4901962;29;20282;-76
2023/03/21 07:10:31;;;;;;;17.00;8.25;;;;;;;;;;4901344;29;20202;-77
2023/03/21 07:13:00;;;;;;;12.23;7.85;;;;;;;;;;4901877;29;20183;-77
2023/03/21 07:15:26;;;;;;;21.75;8.32;;;;;;;;;;4905429;29;20233;-78
2023/03/21 07:17:52;;;;;;;20.08;9.00;;;;;;;;;;4908693;29;20594;-77
2023/03/21 07:20:18;;;;;;;17.77;9.90;;;;;;;;;;4900693;29;20262;-76
2023/03/21 07:22:44;;;;;;;12.95;9.18;;;;;;;;;;4908454;29;20556;-76
2023/03/21 07:25:10;;;;;;;21.30;8.70;;;;;;;;;;4900830;29;20186;-76
2023/03/21 07:27:36;;;;;;;21.07;9.20;;;;;;;;;;4908861;29;20438;-76
2023/03/21 07:30:03;;;;;;;15.53;8.27;;;;;;;;;;4901918;29;20495;-76
2023/03/21 07:32:32;;;;;;;19.58;9.07;;;;;;;;;;4900390;29;20422;-77
2023/03/21 07:34:58;;;;;;;18.95;9.57;;;;;;;;;;4900347;29;20199;-77
2023/03/21 07:37:24;;;;;;;16.50;9.20;;;;;;;;;;4901448;29;20182;-76
2023/03/21 07:39:50;;;;;;;21.52;10.57;;;;;;;;;;4899926;29;20446;-76
2023/03/21 07:42:16;;;;;;;20.27;9.18;;;;;;;;;;4900818;29;20225;-76
2023/03/21 07:44:42;;;;;;;16.77;9.07;;;;;;;;;;4900559;29;20220;-76
2023/03/21 07:47:08;;;;;;;15.93;9.50;;;;;;;;;;4901574;29;20183;-77
2023/03/21 07:49:34;;;;;;;14.30;8.50;;;;;;;;;;4901331;29;20414;-77
2023/03/21 07:52:01;;;;;;;16.40;9.55;;;;;;;;;;4901640;29;20426;-77
2023/03/21 07:54:27;;;;;;;17.67;9.60;;;;;;;;;;4884097;29;20225;-76
2023/03/21 07:56:53;;;;;;;18.10;9.13;;;;;;;;;;4901009;29;20183;-76
2023/03/21 07:59:19;;;;;;;13.65;8.93;;;;;;;;;;4901027;29;20183;-76
2023/03/21 08:01:45;;;;;;;17.80;9.03;;;;;;;;;;4900631;29;20630;-76
2023/03/21 08:04:12;;;;;;;17.47;9.20;;;;;;;;;;4901416;29;20456;-76
2023/03/21 08:06:38;;;;;;;14.55;8.40;;;;;;;;;;4900627;29;20783;-76
2023/03/21 08:09:05;;;;;;;18.70;9.60;;;;;;;;;;4901582;29;20602;-76
2023/03/21 08:11:31;;;;;;;23.23;9.32;;;;;;;;;;4900810;29;20536;-77
2023/03/21 08:13:57;;;;;;;12.18;9.05;;;;;;;;;;4900732;29;20230;-77
2023/03/21 08:16:23;;;;;;;16.48;9.65;;;;;;;;;;4900782;29;20183;-76
2023/03/21 08:18:49;;;;;;;19.33;10.50;;;;;;;;;;4900253;29;20185;-76
2023/03/21 08:21:15;;;;;;;14.02;9.02;;;;;;;;;;4900685;29;20239;-76
2023/03/21 08:23:41;;;;;;;15.27;8.75;;;;;;;;;;4900740;29;20183;-77
2023/03/21 08:26:09;;;;;;;16.07;9.03;;;;;;;;;;4884125;29;20201;-76
2023/03/21 08:28:35;;;;;;;18.98;8.90;;;;;;;;;;4900849;29;20422;-76
2023/03/21 08:31:06;;;;;;;19.85;9.93;;;;;;;;;;4901177;29;20249;-76
2023/03/21 08:33:32;;;;;;;14.55;8.60;;;;;;;;;;4900700;29;20270;-77
2023/03/21 08:36:01;;;;;;;16.23;9.40;;;;;;;;;;4900339;29;20266;-76
2023/03/21 08:38:28;;;;;;;16.85;9.35;;;;;;;;;;4883816;29;20579;-76
2023/03/21 08:40:55;;;;;;;21.83;10.10;;;;;;;;;;4903995;29;20172;-77
2023/03/21 08:43:21;;;;;;;13.60;8.27;;;;;;;;;;4903930;29;20195;-76
2023/03/21 08:45:47;;;;;;;19.70;10.55;;;;;;;;;;4904138;29;20187;-77
2023/03/21 08:48:13;;;;;;;27.73;12.68;;;;;;;;;;4904232;29;20215;-76
2023/03/21 08:50:40;;;;;;;23.63;9.32;;;;;;;;;;4903966;29;20564;-76
2023/03/21 08:53:05;;;;;;;14.55;8.98;;;;;;;;;;4904179;29;20179;-76
2023/03/21 08:55:32;;;;;;;17.63;8.53;;;;;;;;;;4903683;29;20214;-77
2023/03/21 08:57:58;;;;;;;21.70;9.52;;;;;;;;;;4904075;29;20414;-76
2023/03/21 09:00:24;;;;;;;13.52;8.90;;;;;;;;;;4904446;29;20190;-76
2023/03/21 09:02:53;;;;;;;15.43;9.55;;;;;;;;;;4886831;29;20206;-77
2023/03/21 09:05:19;;;;;;;21.52;9.27;;;;;;;;;;4903933;29;20187;-76
2023/03/21 09:07:45;;;;;;;13.73;8.75;;;;;;;;;;4903746;29;20187;-76
2023/03/21 09:10:12;;;;;;;14.13;8.63;;;;;;;;;;4903684;29;20218;-76
2023/03/21 09:12:39;;;;;;;14.77;9.50;;;;;;;;;;4903610;29;20175;-77
2023/03/21 09:15:06;;;;;;;13.25;9.30;;;;;;;;;;4904016;29;20206;-76
2023/03/21 09:17:32;;;;;;;18.48;9.57;;;;;;;;;;4903275;29;20175;-78
2023/03/21 09:19:59;;;;;;;15.68;9.45;;;;;;;;;;4903724;29;20183;-76
2023/03/21 09:22:26;;;;;;;13.07;7.95;;;;;;;;;;4886658;29;20204;-76
2023/03/21 09:24:52;;;;;;;20.00;8.70;;;;;;;;;;4903673;29;20194;-76
2023/03/21 09:27:21;;;;;;;18.17;8.85;;;;;;;;;;4903875;29;20273;-76
2023/03/21 09:29:48;;;;;;;18.48;8.10;;;;;;;;;;4903800;29;20175;-76
2023/03/21 09:32:14;;;;;;;21.80;8.25;;;;;;;;;;4903240;29;20286;-76
2023/03/21 09:34:40;;;;;;;14.23;9.57;;;;;;;;;;4887014;29;20698;-76
2023/03/21 09:37:10;;;;;;;18.05;8.65;;;;;;;;;;4886275;29;20226;-76
2023/03/21 09:39:36;;;;;;;12.23;7.78;;;;;;;;;;4903418;29;20204;-77
2023/03/21 09:42:21;;;;;;;18.98;8.45;;;;;;;;;;4902276;29;20562;-76
2023/03/21 09:44:50;;;;;;;21.45;9.05;;;;;;;;;;4902721;29;20182;-76
2023/03/21 09:47:20;;;;;;;13.48;8.68;;;;;;;;;;4903256;29;20624;-76
2023/03/21 09:49:50;;;;;;;18.27;8.60;;;;;;;;;;4902872;29;20182;-76
2023/03/21 09:52:35;;;;;;;15.40;10.00;;;;;;;;;;4903246;29;20523;-76
2023/03/21 09:55:17;;;;;;;14.15;8.77;;;;;;;;;;4902915;29;20269;-76
2023/03/21 09:57:45;;;;;;;16.00;7.85;;;;;;;;;;4902785;29;20179;-77
2023/03/21 10:00:21;;;;;;;14.18;9.57;;;;;;;;;;4903068;29;20191;-76
2023/03/21 10:02:52;;;;;;;15.45;8.30;;;;;;;;;;4902645;29;20187;-76
2023/03/21 10:05:23;;;;;;;17.05;9.45;;;;;;;;;;4902755;29;20186;-76
2023/03/21 10:08:03;;;;;;;13.73;9.20;;;;;;;;;;4902849;29;20542;-76
2023/03/21 10:10:35;;;;;;;15.55;8.52;;;;;;;;;;4902891;29;20565;-76
2023/03/21 10:13:01;;;;;;;10.95;8.48;;;;;;;;;;4886077;29;20581;-76
2023/03/21 10:15:27;;;;;;;17.93;10.20;;;;;;;;;;4902782;29;20215;-76
2023/03/21 10:17:59;;;;;;;14.48;7.85;;;;;;;;;;4885668;29;20827;-76
2023/03/21 10:20:29;;;;;;;17.73;10.02;;;;;;;;;;4902631;29;20575;-76
2023/03/21 10:22:56;;;;;;;11.52;7.80;;;;;;;;;;4902700;29;20212;-77
2023/03/21 10:25:25;;;;;;;15.02;9.40;;;;;;;;;;4886071;29;20195;-76
2023/03/21 10:27:52;;;;;;;15.50;8.32;;;;;;;;;;4902422;29;20230;-75
2023/03/21 10:30:24;;;;;;;13.60;8.65;;;;;;;;;;4901825;29;20194;-77
2023/03/21 10:32:50;;;;;;;15.13;8.25;;;;;;;;;;4902147;29;20501;-76
2023/03/21 10:35:16;;;;;;;14.60;7.18;;;;;;;;;;4902009;29;20243;-75
2023/03/21 10:37:42;;;;;;;11.98;7.60;;;;;;;;;;4886229;29;20524;-76
2023/03/21 10:40:14;;;;;;;8.60;6.47;;;;;;;;;;4902462;29;20183;-76
2023/03/21 10:42:41;;;;;;;14.13;7.70;;;;;;;;;;4902558;29;20729;-76
2023/03/21 10:45:13;;;;;;;11.50;6.65;;;;;;;;;;4902505;29;20614;-76
2023/03/21 10:47:39;;;;;;;8.65;5.10;;;;;;;;;;4902510;29;20186;-76
2023/03/21 10:50:08;;;;;;;12.00;6.07;;;;;;;;;;4902184;29;20262;-75
2023/03/21 10:52:35;;;;;;;9.30;7.28;;;;;;;;;;4902407;29;20439;-75
2023/03/21 10:55:07;;;;;;;11.33;6.00;;;;;;;;;;4901905;29;20269;-75
2023/03/21 10:57:33;;;;;;;10.57;5.10;;;;;;;;;;4902004;29;20841;-74
2023/03/21 11:00:00;;;;;;;10.48;5.47;;;;;;;;;;4901930;29;20178;-74
2023/03/21 11:02:34;;;;;;;7.20;5.40;;;;;;;;;;4901700;29;20198;-74
2023/03/21 11:05:08;;;;;;;6.70;5.40;;;;;;;;;;4902130;29;20419;-75
2023/03/21 11:07:35;;;;;;;11.83;5.07;;;;;;;;;;4902011;29;20411;-75
2023/03/21 11:10:11;;;;;;;9.27;5.00;;;;;;;;;;4902038;29;20407;-74
2023/03/21 11:12:39;;;;;;;8.93;5.20;;;;;;;;;;4902028;29;20395;-74
2023/03/21 11:15:37;;;;;;;7.07;4.55;;;;;;;;;;4901957;29;20473;-74
2023/03/21 11:18:14;;;;;;;7.97;5.10;;;;;;;;;;4879686;29;20250;-75
2023/03/21 11:20:44;;;;;;;10.07;5.03;;;;;;;;;;4901634;29;20423;-76
2023/03/21 11:23:12;;;;;;;9.80;5.23;;;;;;;;;;4902255;29;20682;-75
2023/03/21 11:25:40;;;;;;;11.05;6.75;;;;;;;;;;4884297;29;20411;-75
2023/03/21 11:28:09;;;;;;;6.45;4.28;;;;;;;;;;4901708;29;20182;-75
2023/03/21 11:30:35;;;;;;;5.60;4.90;;;;;;;;;;4901128;29;20175;-75
2023/03/21 11:33:05;;;;;;;6.90;4.93;;;;;;;;;;4901320;29;20519;-75
2023/03/21 11:35:35;;;;;;;13.68;4.78;;;;;;;;;;4901941;29;20249;-75
2023/03/21 11:38:01;;;;;;;8.40;5.47;;;;;;;;;;4884820;29;20632;-75
2023/03/21 11:40:32;;;;;;;6.00;5.22;;;;;;;;;;4901277;29;20410;-75
2023/03/21 11:43:02;;;;;;;8.95;5.60;;;;;;;;;;4900977;29;20198;-75
2023/03/21 11:45:29;;;;;;;11.05;5.85;;;;;;;;;;4901746;29;20183;-75
2023/03/21 11:47:56;;;;;;;11.02;5.35;;;;;;;;;;4901277;29;20187;-75
2023/03/21 11:50:32;;;;;;;9.77;6.28;;;;;;;;;;4901364;29;20206;-75
2023/03/21 11:53:03;;;;;;;11.15;5.80;;;;;;;;;;4901090;29;20646;-75
2023/03/21 11:55:30;;;;;;;22.33;6.03;;;;;;;;;;4901399;29;20266;-75
2023/03/21 11:58:14;;;;;;;6.82;5.60;;;;;;;;;;4901588;29;20535;-76
2023/03/21 12:01:03;;;;;;;8.75;5.60;;;;;;;;;;4901535;29;20238;-75
2023/03/21 12:03:45;;;;;;;15.10;6.15;;;;;;;;;;4895903;29;20195;-76
2023/03/21 12:06:15;;;;;;;7.32;4.78;;;;;;;;;;4901721;29;20194;-75
2023/03/21 12:08:44;;;;;;;9.70;5.60;;;;;;;;;;4901026;29;20246;-76
2023/03/21 12:11:17;;;;;;;9.93;6.07;;;;;;;;;;4901402;29;20233;-75
2023/03/21 12:13:43;;;;;;;7.43;5.50;;;;;;;;;;4900764;29;20215;-76
2023/03/21 12:16:19;;;;;;;7.10;5.70;;;;;;;;;;4905226;29;20210;-75
2023/03/21 12:18:48;;;;;;;9.05;5.28;;;;;;;;;;4904919;29;20403;-76
2023/03/21 12:21:14;;;;;;;8.50;6.22;;;;;;;;;;4904883;29;20539;-75
2023/03/21 12:23:59;;;;;;;14.70;6.32;;;;;;;;;;4904838;29;20550;-75
2023/03/21 12:26:27;;;;;;;8.40;6.13;;;;;;;;;;4904697;29;20183;-76
2023/03/21 12:29:07;;;;;;;12.15;6.63;;;;;;;;;;4904696;29;20261;-76
2023/03/21 12:32:03;;;;;;;9.80;6.13;;;;;;;;;;4904921;29;20253;-76
2023/03/21 12:34:43;;;;;;;7.90;5.72;;;;;;;;;;4896044;29;20229;-76
2023/03/21 12:37:32;;;;;;;11.65;6.10;;;;;;;;;;4904885;29;20595;-75
2023/03/21 12:40:12;;;;;;;7.60;5.25;;;;;;;;;;4904644;29;20660;-76
2023/03/21 12:42:45;;;;;;;10.63;5.45;;;;;;;;;;4904224;29;20207;-75
2023/03/21 12:45:17;;;;;;;6.47;4.30;;;;;;;;;;4904545;29;20183;-75
2023/03/21 12:47:47;;;;;;;6.85;5.40;;;;;;;;;;4904903;29;20530;-75
2023/03/21 12:50:25;;;;;;;7.73;5.13;;;;;;;;;;4904615;29;20183;-76
2023/03/21 12:52:59;;;;;;;8.00;5.20;;;;;;;;;;4904600;29;20431;-76
2023/03/21 12:55:33;;;;;;;10.70;5.20;;;;;;;;;;4887290;29;20519;-76
2023/03/21 12:58:03;;;;;;;7.47;4.97;;;;;;;;;;4887351;29;20503;-76
2023/03/21 13:00:47;;;;;;;5.57;4.97;;;;;;;;;;4904357;29;20619;-76
2023/03/21 13:03:31;;;;;;;11.03;4.73;;;;;;;;;;4904130;29;20415;-76
2023/03/21 13:05:59;;;;;;;7.87;4.20;;;;;;;;;;4903910;29;20433;-76
2023/03/21 13:08:45;;;;;;;6.57;4.20;;;;;;;;;;4904323;29;20435;-76
2023/03/21 13:11:13;;;;;;;6.70;3.63;;;;;;;;;;4904555;29;20407;-76
2023/03/21 13:13:43;;;;;;;6.93;4.13;;;;;;;;;;4903959;29;20400;-76
2023/03/21 13:16:14;;;;;;;7.53;3.70;;;;;;;;;;4903465;29;20451;-76
2023/03/21 13:18:59;;;;;;;6.27;3.80;;;;;;;;;;4903488;29;20495;-76
2023/03/21 13:21:25;;;;;;;4.97;3.60;;;;;;;;;;4903450;29;20404;-76
2023/03/21 13:24:20;;;;;;;5.70;3.53;;;;;;;;;;4904114;29;20411;-76
2023/03/21 13:26:50;;;;;;;3.83;3.00;;;;;;;;;;4868683;29;20486;-76
2023/03/21 13:29:31;;;;;;;8.53;4.40;;;;;;;;;;4904151;29;20410;-76
2023/03/21 13:31:59;;;;;;;5.60;3.67;;;;;;;;;;4902997;29;20770;-76
2023/03/21 13:34:25;;;;;;;10.00;3.50;;;;;;;;;;4887036;29;20470;-76
2023/03/21 13:36:52;;;;;;;4.97;3.70;;;;;;;;;;4902808;29;20502;-76
2023/03/21 13:39:24;;;;;;;5.70;4.10;;;;;;;;;;4903488;29;20403;-76
2023/03/21 13:41:51;;;;;;;5.33;3.30;;;;;;;;;;4903047;29;20416;-77
2023/03/21 13:44:19;;;;;;;5.10;3.63;;;;;;;;;;4903379;29;20471;-76
2023/03/21 13:46:59;;;;;;;5.33;3.37;;;;;;;;;;4903434;29;20503;-76
2023/03/21 13:49:26;;;;;;;5.03;3.30;;;;;;;;;;4903098;29;20411;-76
2023/03/21 13:51:57;;;;;;;7.77;3.87;;;;;;;;;;4902333;29;20415;-77
2023/03/21 13:54:43;;;;;;;5.90;3.50;;;;;;;;;;4903072;29;20430;-76
2023/03/21 13:57:20;;;;;;;8.27;3.33;;;;;;;;;;4902719;29;20399;-77
2023/03/21 13:59:47;;;;;;;6.00;3.77;;;;;;;;;;4903364;29;20389;-77
2023/03/21 14:02:29;;;;;;;7.03;4.00;;;;;;;;;;4902640;29;20477;-76
2023/03/21 14:05:06;;;;;;;4.97;3.17;;;;;;;;;;4902353;29;20419;-78
2023/03/21 14:07:42;;;;;;;5.20;3.80;;;;;;;;;;4902630;29;20440;-77
2023/03/21 14:10:18;;;;;;;5.60;3.60;;;;;;;;;;4902759;29;20891;-77
2023/03/21 14:12:46;;;;;;;5.60;4.00;;;;;;;;;;4902763;29;20403;-77
2023/03/21 14:15:12;;;;;;;3.83;3.50;;;;;;;;;;4902257;29;20470;-77
2023/03/21 14:17:38;;;;;;;6.50;3.40;;;;;;;;;;4902544;29;20411;-77
2023/03/21 14:20:18;;;;;;;5.23;3.57;;;;;;;;;;4885625;29;20423;-76
2023/03/21 14:22:46;;;;;;;6.93;4.57;;;;;;;;;;4902649;29;20770;-77
2023/03/21 14:25:13;;;;;;;7.13;3.13;;;;;;;;;;4902098;29;20411;-77
2023/03/21 14:27:41;;;;;;;5.67;3.10;;;;;;;;;;4901820;29;20404;-77
2023/03/21 14:30:11;;;;;;;6.13;4.00;;;;;;;;;;4884225;29;20394;-76
2023/03/21 14:32:37;;;;;;;6.00;3.67;;;;;;;;;;4884561;29;20419;-76
2023/03/21 14:35:03;;;;;;;6.33;2.93;;;;;;;;;;4900703;29;21047;-76
2023/03/21 14:37:31;;;;;;;6.37;2.90;;;;;;;;;;4883623;29;20506;-76
2023/03/21 14:40:01;;;;;;;4.03;3.20;;;;;;;;;;4901254;29;20378;-76
2023/03/21 14:42:27;;;;;;;5.50;3.30;;;;;;;;;;4901075;29;20408;-76
2023/03/21 14:44:59;;;;;;;8.90;3.07;;;;;;;;;;4900712;29;20422;-77